Time;durP1;ratioP1;P1;durP2;ratioP2;P2;SDS_P1;SDS_P2;PMS_P1;PMS_P2;Temp;Humidity;BMP_temperature;BMP_pressure;BME280_temperature;BME280_humidity;BME280_pressure;Samples;Min_cycle;Max_cycle;Signal;HPM_P1;HPM_P2
2021/08/22 04:02:36;;;;;;;6.50;6.00;;;18.10;99.90;;;;;;4977865;28;20502;-66
2021/08/22 04:05:05;;;;;;;7.23;6.53;;;18.10;99.90;;;;;;4979155;28;20463;-66
2021/08/22 04:07:33;;;;;;;7.07;6.47;;;18.10;99.90;;;;;;4979172;28;20482;-66
2021/08/22 04:10:00;;;;;;;10.13;6.60;;;18.20;99.90;;;;;;4979153;28;20950;-66
2021/08/22 04:12:27;;;;;;;7.00;6.40;;;18.30;99.90;;;;;;4979498;28;21004;-66
2021/08/22 04:14:54;;;;;;;7.20;6.60;;;18.30;99.90;;;;;;4981763;28;20478;-66
2021/08/22 04:17:21;;;;;;;6.50;5.73;;;18.30;99.90;;;;;;4979907;28;20459;-66
2021/08/22 04:19:49;;;;;;;7.03;6.40;;;18.40;99.90;;;;;;4979819;28;20794;-66
2021/08/22 04:22:16;;;;;;;6.50;6.00;;;18.40;99.90;;;;;;4979228;28;20537;-66
2021/08/22 04:24:43;;;;;;;6.63;5.97;;;18.40;99.90;;;;;;4978937;28;20466;-66
2021/08/22 04:27:09;;;;;;;6.00;5.60;;;18.50;99.90;;;;;;4979165;28;20509;-66
2021/08/22 04:29:39;;;;;;;6.00;5.60;;;18.50;99.90;;;;;;4978932;28;20475;-66
2021/08/22 04:32:07;;;;;;;10.80;6.37;;;18.50;99.90;;;;;;4978742;28;20905;-66
2021/08/22 04:34:34;;;;;;;6.80;6.30;;;18.60;99.90;;;;;;4978524;28;20454;-66
2021/08/22 04:37:02;;;;;;;6.47;5.83;;;18.60;99.90;;;;;;4978409;28;20961;-66
2021/08/22 04:39:29;;;;;;;6.90;6.23;;;18.60;99.90;;;;;;4978433;28;20450;-66
2021/08/22 04:41:56;;;;;;;6.40;5.80;;;18.60;99.90;;;;;;4978437;28;20479;-66
2021/08/22 04:44:23;;;;;;;6.90;6.30;;;18.70;99.90;;;;;;4978740;28;20462;-66
2021/08/22 04:46:49;;;;;;;7.60;6.90;;;18.50;99.90;;;;;;4978824;28;20826;-66
2021/08/22 04:49:16;;;;;;;6.60;6.10;;;18.50;99.90;;;;;;4978618;28;20501;-66
2021/08/22 04:51:43;;;;;;;8.43;7.63;;;18.50;99.90;;;;;;4977993;28;21028;-66
2021/08/22 04:54:11;;;;;;;8.93;8.23;;;18.50;99.90;;;;;;4978664;28;20545;-66
2021/08/22 04:56:40;;;;;;;9.00;8.13;;;18.40;99.90;;;;;;4978578;28;20459;-66
2021/08/22 04:59:07;;;;;;;9.03;7.30;;;18.50;99.90;;;;;;4978539;28;20451;-66
2021/08/22 05:01:34;;;;;;;7.53;6.93;;;18.50;99.90;;;;;;4977808;28;21008;-66
2021/08/22 05:04:00;;;;;;;7.97;7.33;;;18.50;99.90;;;;;;4978245;28;20458;-66
2021/08/22 05:06:27;;;;;;;8.10;7.40;;;18.50;99.90;;;;;;4978200;28;20820;-66
2021/08/22 05:08:54;;;;;;;7.93;7.23;;;18.60;99.90;;;;;;4977768;28;20845;-66
2021/08/22 05:11:22;;;;;;;7.23;6.50;;;18.70;99.90;;;;;;4977913;28;20482;-66
2021/08/22 05:13:49;;;;;;;7.17;6.57;;;18.80;99.90;;;;;;4977882;28;20455;-66
2021/08/22 05:16:15;;;;;;;6.63;6.13;;;18.80;99.90;;;;;;4986526;28;20462;-66
2021/08/22 05:18:42;;;;;;;7.93;7.13;;;18.90;99.90;;;;;;4993064;28;20551;-66
2021/08/22 05:21:09;;;;;;;7.77;6.97;;;18.90;99.90;;;;;;4978484;28;20838;-66
2021/08/22 05:23:35;;;;;;;7.83;7.23;;;18.90;99.90;;;;;;4978088;28;20466;-66
2021/08/22 05:26:02;;;;;;;7.70;6.90;;;18.80;99.90;;;;;;4977664;28;20450;-66
2021/08/22 05:28:30;;;;;;;7.53;6.83;;;18.80;99.90;;;;;;4977319;28;20471;-66
2021/08/22 05:30:57;;;;;;;8.73;7.73;;;18.80;99.90;;;;;;4977621;28;20474;-66
2021/08/22 05:33:24;;;;;;;9.10;8.40;;;18.80;99.90;;;;;;4977842;28;20490;-66
2021/08/22 05:35:50;;;;;;;10.00;9.00;;;18.80;99.90;;;;;;4977835;28;20848;-66
2021/08/22 05:38:17;;;;;;;8.87;7.97;;;18.80;99.90;;;;;;4977238;28;20450;-66
2021/08/22 05:40:44;;;;;;;8.70;7.20;;;18.80;99.90;;;;;;4977426;28;20474;-66
2021/08/22 05:43:11;;;;;;;7.63;6.83;;;18.90;99.90;;;;;;4978060;28;20458;-66
2021/08/22 05:45:39;;;;;;;8.37;7.73;;;19.00;99.90;;;;;;4977712;28;20466;-66
2021/08/22 05:48:06;;;;;;;10.40;9.40;;;18.90;99.90;;;;;;4976847;28;20454;-66
2021/08/22 05:50:32;;;;;;;7.90;7.03;;;18.90;99.90;;;;;;4977597;28;20899;-66
2021/08/22 05:52:59;;;;;;;10.70;7.47;;;19.00;99.90;;;;;;4976902;28;20455;-66
2021/08/22 05:55:26;;;;;;;7.57;6.97;;;19.00;99.90;;;;;;4976847;28;20824;-66
2021/08/22 05:57:52;;;;;;;8.00;7.37;;;19.10;99.90;;;;;;4976612;28;20941;-66
2021/08/22 06:00:19;;;;;;;7.67;7.07;;;19.20;99.90;;;;;;4976808;28;20815;-66
2021/08/22 06:02:47;;;;;;;9.43;7.80;;;19.20;99.90;;;;;;4977582;28;20446;-66
2021/08/22 06:05:14;;;;;;;7.87;7.17;;;19.30;99.90;;;;;;4976953;28;20474;-66
2021/08/22 06:07:41;;;;;;;8.43;7.53;;;19.40;99.90;;;;;;4976872;28;20465;-67
2021/08/22 06:10:08;;;;;;;8.53;7.13;;;19.50;99.90;;;;;;4977100;28;20478;-66
2021/08/22 06:12:35;;;;;;;7.97;7.27;;;19.60;99.90;;;;;;4976899;28;20791;-65
2021/08/22 06:15:03;;;;;;;8.90;8.07;;;19.60;99.90;;;;;;4977947;28;20816;-66
2021/08/22 06:17:29;;;;;;;9.20;7.10;;;19.60;99.90;;;;;;4977653;28;20786;-65
2021/08/22 06:19:57;;;;;;;9.30;8.40;;;19.70;99.90;;;;;;4975850;28;20937;-66
2021/08/22 06:22:24;;;;;;;9.57;7.97;;;19.60;99.90;;;;;;4975867;28;20485;-66
2021/08/22 06:24:51;;;;;;;9.03;7.50;;;19.70;99.90;;;;;;4975666;28;20482;-65
2021/08/22 06:27:17;;;;;;;8.43;7.63;;;19.80;99.90;;;;;;4976392;28;20841;-65
2021/08/22 06:29:44;;;;;;;7.47;6.90;;;19.90;99.90;;;;;;4975901;28;20606;-65
2021/08/22 06:32:11;;;;;;;7.97;7.17;;;20.00;99.90;;;;;;4975606;28;20475;-67
2021/08/22 06:34:38;;;;;;;9.30;8.10;;;20.00;99.90;;;;;;4985215;28;20462;-66
2021/08/22 06:37:06;;;;;;;7.63;7.03;;;20.00;99.90;;;;;;4988410;28;20455;-66
2021/08/22 06:39:38;;;;;;;7.73;7.00;;;20.20;99.90;;;;;;4975838;28;20457;-66
2021/08/22 06:42:05;;;;;;;7.53;6.80;;;20.40;99.90;;;;;;4976010;28;20525;-66
2021/08/22 06:44:33;;;;;;;7.83;7.23;;;20.60;99.90;;;;;;4975528;28;20462;-66
2021/08/22 06:47:00;;;;;;;8.70;7.90;;;20.50;99.90;;;;;;4975503;28;20455;-66
2021/08/22 06:49:26;;;;;;;7.33;6.60;;;20.70;99.90;;;;;;4975482;28;20478;-66
2021/08/22 06:51:53;;;;;;;7.30;6.60;;;20.80;99.90;;;;;;4975326;28;20481;-66
2021/08/22 06:54:21;;;;;;;7.17;6.57;;;21.00;99.90;;;;;;4975079;28;20938;-66
2021/08/22 06:56:50;;;;;;;8.30;6.73;;;21.10;99.90;;;;;;4975475;28;20466;-66
2021/08/22 06:59:17;;;;;;;9.50;7.47;;;21.20;99.90;;;;;;4975229;28;20458;-66
2021/08/22 07:01:44;;;;;;;7.93;6.97;;;21.20;99.90;;;;;;4974853;28;20511;-66
2021/08/22 07:04:12;;;;;;;7.43;6.57;;;21.20;99.90;;;;;;4976928;28;20462;-66
2021/08/22 07:06:39;;;;;;;7.57;6.87;;;21.20;99.90;;;;;;4979297;28;20458;-66
2021/08/22 07:09:06;;;;;;;7.90;7.30;;;21.30;99.90;;;;;;4978570;28;20504;-66
2021/08/22 07:11:34;;;;;;;7.77;7.20;;;21.30;99.90;;;;;;4978812;28;20996;-66
2021/08/22 07:14:01;;;;;;;7.13;6.53;;;21.30;99.90;;;;;;4979044;28;20461;-66
2021/08/22 07:16:28;;;;;;;7.73;7.10;;;21.40;99.90;;;;;;4979074;28;20458;-66
2021/08/22 07:18:55;;;;;;;6.90;6.30;;;21.40;99.90;;;;;;4979925;28;20454;-66
2021/08/22 07:21:22;;;;;;;6.50;5.90;;;21.40;99.90;;;;;;4978863;28;20843;-66
2021/08/22 07:23:48;;;;;;;6.40;5.80;;;21.40;99.90;;;;;;4979075;28;20454;-66
2021/08/22 07:26:15;;;;;;;6.17;5.77;;;21.50;99.90;;;;;;4979483;28;20454;-65
2021/08/22 07:28:43;;;;;;;6.27;5.87;;;21.60;99.90;;;;;;4980045;28;20466;-65
2021/08/22 07:31:10;;;;;;;6.80;6.30;;;21.70;99.90;;;;;;4979092;28;20839;-65
2021/08/22 07:33:37;;;;;;;7.30;5.80;;;21.70;99.90;;;;;;4978899;28;20454;-65
2021/08/22 07:36:05;;;;;;;7.07;6.50;;;21.80;99.90;;;;;;4978729;28;20462;-65
2021/08/22 07:38:32;;;;;;;6.00;5.50;;;21.80;99.90;;;;;;4979575;28;20438;-65
2021/08/22 07:40:59;;;;;;;7.17;6.57;;;21.80;99.90;;;;;;4978743;28;20502;-65
2021/08/22 07:43:26;;;;;;;8.10;7.30;;;21.80;99.90;;;;;;4978413;28;20481;-65
2021/08/22 07:45:54;;;;;;;7.40;6.60;;;21.80;99.90;;;;;;4978673;28;20485;-65
2021/08/22 07:48:20;;;;;;;6.20;5.80;;;22.00;99.90;;;;;;4978517;28;20465;-65
2021/08/22 07:50:47;;;;;;;7.47;6.87;;;22.00;99.90;;;;;;4978509;28;20486;-65
2021/08/22 07:53:16;;;;;;;6.90;6.30;;;22.10;99.90;;;;;;4979230;28;20477;-65
2021/08/22 07:55:43;;;;;;;6.53;6.03;;;22.20;99.90;;;;;;4979490;28;20550;-66
2021/08/22 07:58:10;;;;;;;6.77;6.27;;;22.20;99.90;;;;;;4984304;28;20455;-66
2021/08/22 08:00:36;;;;;;;6.30;5.83;;;22.20;99.90;;;;;;4983843;28;20478;-65
2021/08/22 08:03:04;;;;;;;6.10;5.60;;;22.20;99.90;;;;;;4983703;28;20511;-65
2021/08/22 08:05:31;;;;;;;5.47;5.07;;;22.20;99.90;;;;;;4986553;28;20958;-66
2021/08/22 08:07:58;;;;;;;6.50;5.97;;;22.30;99.90;;;;;;4980519;28;20451;-65
2021/08/22 08:10:26;;;;;;;6.20;5.80;;;22.80;99.90;;;;;;4978809;28;20489;-65
2021/08/22 08:12:53;;;;;;;7.10;6.00;;;23.10;99.90;;;;;;4978808;28;20454;-65
2021/08/22 08:15:20;;;;;;;6.17;5.67;;;23.40;99.90;;;;;;4977175;28;20845;-65
2021/08/22 08:17:47;;;;;;;5.27;4.90;;;23.60;99.90;;;;;;4978251;28;20459;-65
2021/08/22 08:20:15;;;;;;;6.00;5.40;;;23.80;99.90;;;;;;4978239;28;20850;-65
2021/08/22 08:22:42;;;;;;;5.60;5.10;;;23.90;99.90;;;;;;4977760;28;20509;-65
2021/08/22 08:25:09;;;;;;;7.53;6.00;;;23.80;99.90;;;;;;4977554;28;20551;-66
2021/08/22 08:27:36;;;;;;;5.80;5.40;;;23.90;99.90;;;;;;4977611;28;20461;-66
2021/08/22 08:30:03;;;;;;;5.63;5.13;;;23.90;99.90;;;;;;4977769;28;20482;-66
2021/08/22 08:32:30;;;;;;;5.50;5.10;;;24.00;99.90;;;;;;4977316;28;20989;-66
2021/08/22 08:34:57;;;;;;;5.40;4.90;;;24.00;99.90;;;;;;4977351;28;20463;-66
2021/08/22 08:37:25;;;;;;;5.57;5.00;;;24.10;99.90;;;;;;4977670;28;20461;-66
2021/08/22 08:39:51;;;;;;;5.00;4.60;;;24.00;99.90;;;;;;4977615;28;20458;-66
2021/08/22 08:42:20;;;;;;;5.77;5.27;;;23.90;99.90;;;;;;4977571;28;20475;-66
2021/08/22 08:44:48;;;;;;;5.10;4.80;;;23.80;99.90;;;;;;4977475;28;20469;-65
2021/08/22 08:47:15;;;;;;;7.33;5.07;;;23.70;99.90;;;;;;4977124;28;20454;-66
2021/08/22 08:49:44;;;;;;;5.43;5.03;;;23.70;99.90;;;;;;4976762;28;20892;-66
2021/08/22 08:52:16;;;;;;;5.67;5.17;;;23.80;99.90;;;;;;4976882;28;20478;-66
2021/08/22 08:54:44;;;;;;;5.43;5.10;;;23.80;99.90;;;;;;4976415;28;20933;-66
2021/08/22 08:57:13;;;;;;;5.00;4.70;;;23.80;99.90;;;;;;4976945;28;20546;-66
2021/08/22 08:59:40;;;;;;;4.93;3.93;;;24.20;99.90;;;;;;4977067;28;20454;-66
2021/08/22 09:02:07;;;;;;;4.97;4.50;;;24.50;99.90;;;;;;4976951;28;20493;-66
2021/08/22 09:04:34;;;;;;;4.90;4.50;;;24.70;99.90;;;;;;4977427;28;20479;-66
2021/08/22 09:07:47;;;;;;;4.50;4.20;;;24.70;99.90;;;;;;4977116;28;20534;-66
2021/08/22 09:10:47;;;;;;;4.70;4.30;;;24.80;99.90;;;;;;4973375;28;20889;-65
2021/08/22 09:13:47;;;;;;;4.80;4.20;;;24.70;99.90;;;;;;4977155;28;20439;-66
2021/08/22 09:16:51;;;;;;;5.90;4.67;;;24.60;99.90;;;;;;4977160;28;20781;-65
2021/08/22 09:20:11;;;;;;;5.73;5.07;;;24.70;99.90;;;;;;4976788;28;20965;-65
2021/08/22 09:23:20;;;;;;;6.53;4.57;;;24.70;99.90;;;;;;4976886;28;20434;-66
2021/08/22 09:26:24;;;;;;;5.27;4.90;;;24.50;99.90;;;;;;4976295;28;20477;-66
2021/08/22 09:29:33;;;;;;;4.83;4.43;;;24.30;99.90;;;;;;4976666;28;20458;-66
2021/08/22 09:32:45;;;;;;;5.00;4.60;;;24.10;99.90;;;;;;4976761;28;20467;-66
2021/08/22 09:35:49;;;;;;;6.70;6.20;;;23.90;99.90;;;;;;4976917;28;20450;-65
2021/08/22 09:39:08;;;;;;;7.23;6.50;;;23.50;99.90;;;;;;4976780;28;20497;-65
2021/08/22 09:42:11;;;;;;;6.73;6.13;;;23.20;99.90;;;;;;4976393;28;20481;-65
2021/08/22 09:45:16;;;;;;;8.03;7.10;;;22.90;99.90;;;;;;4976273;28;20446;-66
2021/08/22 09:48:20;;;;;;;8.00;7.37;;;22.60;99.90;;;;;;4977038;28;20485;-65
2021/08/22 09:51:24;;;;;;;7.60;7.00;;;22.50;99.90;;;;;;4976430;28;20483;-65
2021/08/22 09:54:29;;;;;;;7.67;6.93;;;22.40;99.90;;;;;;4976502;28;20450;-66
2021/08/22 09:57:33;;;;;;;8.30;7.47;;;22.40;99.90;;;;;;4975749;28;20450;-66
2021/08/22 10:00:37;;;;;;;7.63;6.93;;;22.60;99.90;;;;;;4976162;28;20513;-66
2021/08/22 10:03:48;;;;;;;7.50;6.90;;;22.70;99.90;;;;;;4977483;28;20442;-66
2021/08/22 10:06:27;;;;;;;6.97;6.47;;;22.90;99.90;;;;;;4969731;28;20454;-66
2021/08/22 10:08:58;;;;;;;9.17;7.30;;;23.00;99.90;;;;;;4980651;28;20438;-65
2021/08/22 10:11:27;;;;;;;7.50;6.80;;;23.00;99.90;;;;;;4976520;28;20482;-67
2021/08/22 10:13:54;;;;;;;9.30;8.60;;;23.00;99.90;;;;;;4975771;28;20820;-66
2021/08/22 10:16:22;;;;;;;7.70;7.10;;;23.00;99.90;;;;;;4976179;28;20458;-66
2021/08/22 10:18:51;;;;;;;7.60;7.10;;;23.10;99.90;;;;;;4975982;28;20655;-66
2021/08/22 10:21:26;;;;;;;8.00;7.40;;;23.20;99.90;;;;;;4976000;28;20474;-66
2021/08/22 10:23:55;;;;;;;7.93;7.23;;;23.20;99.90;;;;;;4975919;28;20443;-66
2021/08/22 10:26:51;;;;;;;8.97;8.17;;;23.30;99.90;;;;;;4975912;28;20454;-66
2021/08/22 10:29:25;;;;;;;8.17;7.40;;;23.20;99.90;;;;;;4976070;28;20458;-67
2021/08/22 10:32:11;;;;;;;9.13;8.07;;;23.10;99.90;;;;;;4976319;28;20481;-67
2021/08/22 10:34:40;;;;;;;9.23;8.43;;;22.90;99.90;;;;;;4975773;28;20537;-67
2021/08/22 10:37:27;;;;;;;8.60;7.70;;;22.80;99.90;;;;;;4976000;28;20462;-66
2021/08/22 10:39:55;;;;;;;8.63;7.93;;;22.70;99.90;;;;;;4979780;28;20496;-66
2021/08/22 10:42:24;;;;;;;9.87;9.07;;;22.70;99.90;;;;;;4980093;28;20485;-66
2021/08/22 10:44:51;;;;;;;8.93;8.23;;;22.60;99.90;;;;;;4987958;28;20541;-66
2021/08/22 10:47:40;;;;;;;14.40;8.73;;;22.60;99.90;;;;;;4986120;28;20938;-66
2021/08/22 10:50:08;;;;;;;9.47;8.67;;;22.50;99.90;;;;;;4980210;28;20505;-66
2021/08/22 10:52:35;;;;;;;9.27;8.57;;;22.50;99.90;;;;;;4979791;28;20474;-67
2021/08/22 10:55:28;;;;;;;10.83;9.70;;;22.30;99.90;;;;;;4979603;28;20462;-66
2021/08/22 10:57:55;;;;;;;10.47;9.67;;;22.30;99.90;;;;;;4979897;28;20933;-67
2021/08/22 11:00:23;;;;;;;11.47;10.27;;;22.20;99.90;;;;;;4979074;28;20897;-66
2021/08/22 11:02:50;;;;;;;7.67;7.07;;;22.00;99.90;;;;;;4980152;28;20439;-66
2021/08/22 11:05:20;;;;;;;4.60;4.30;;;21.80;99.90;;;;;;4986640;28;20454;-67
2021/08/22 11:07:51;;;;;;;3.97;2.30;;;21.60;99.90;;;;;;4989672;28;20463;-66
2021/08/22 11:10:18;;;;;;;2.37;2.17;;;21.40;99.90;;;;;;4979900;28;20466;-65
2021/08/22 11:12:45;;;;;;;1.90;1.80;;;21.00;99.90;;;;;;4979430;28;20469;-66
2021/08/22 11:15:26;;;;;;;1.93;1.83;;;20.80;99.90;;;;;;4979256;28;20454;-65
2021/08/22 11:17:54;;;;;;;4.30;2.27;;;20.50;99.90;;;;;;4979276;28;20442;-66
2021/08/22 11:20:27;;;;;;;2.60;2.00;;;20.20;99.90;;;;;;4978897;28;20454;-66
2021/08/22 11:23:02;;;;;;;3.47;2.20;;;20.00;99.90;;;;;;4979402;28;20442;-65
2021/08/22 11:25:29;;;;;;;1.97;1.80;;;19.80;99.90;;;;;;4979313;28;20442;-66
2021/08/22 11:28:07;;;;;;;2.20;1.90;;;19.60;99.90;;;;;;4978874;28;20461;-66
2021/08/22 11:30:34;;;;;;;3.90;2.57;;;19.40;99.90;;;;;;4978951;28;20488;-67
2021/08/22 11:33:00;;;;;;;3.80;3.07;;;19.40;99.90;;;;;;4979132;28;20834;-66
2021/08/22 11:35:28;;;;;;;2.60;2.27;;;19.40;99.90;;;;;;4978438;28;20461;-66
2021/08/22 11:37:58;;;;;;;2.10;2.00;;;19.40;99.90;;;;;;4978813;28;20468;-66
2021/08/22 11:40:26;;;;;;;2.13;2.03;;;19.50;99.90;;;;;;4978193;28;20846;-66
2021/08/22 11:42:54;;;;;;;2.47;2.37;;;19.60;99.90;;;;;;4978496;28;20458;-65
2021/08/22 11:45:23;;;;;;;2.60;2.20;;;19.60;99.90;;;;;;4978526;28;20505;-66
2021/08/22 11:47:51;;;;;;;2.53;2.37;;;19.70;99.90;;;;;;4978677;28;20485;-66
2021/08/22 11:50:21;;;;;;;2.50;2.30;;;19.90;99.90;;;;;;4977221;28;20529;-66
2021/08/22 11:52:51;;;;;;;3.50;2.33;;;19.90;99.90;;;;;;4979260;28;20455;-66
2021/08/22 11:55:23;;;;;;;2.60;2.40;;;20.00;99.90;;;;;;4978439;28;20438;-65
2021/08/22 11:57:50;;;;;;;3.57;3.27;;;20.10;99.90;;;;;;4977758;28;20443;-66
2021/08/22 12:00:19;;;;;;;3.27;3.07;;;20.10;99.90;;;;;;4978000;28;20557;-65
2021/08/22 12:02:56;;;;;;;5.10;3.70;;;20.10;99.90;;;;;;4978427;28;20845;-66
2021/08/22 12:05:25;;;;;;;3.63;3.33;;;20.00;99.90;;;;;;4978442;28;20462;-66
2021/08/22 12:08:04;;;;;;;4.43;3.53;;;20.00;99.90;;;;;;4978021;28;20967;-66
2021/08/22 12:10:33;;;;;;;4.10;3.80;;;19.90;99.90;;;;;;4977783;28;20981;-66
2021/08/22 12:13:02;;;;;;;3.90;3.60;;;19.90;99.90;;;;;;4978325;28;20455;-66
2021/08/22 12:15:35;;;;;;;3.90;3.60;;;19.80;99.90;;;;;;4978229;28;20825;-66
2021/08/22 12:18:19;;;;;;;3.57;3.33;;;19.80;99.90;;;;;;4977975;28;20450;-66
2021/08/22 12:20:49;;;;;;;4.53;4.20;;;19.90;99.90;;;;;;4978695;28;20477;-66
2021/08/22 12:23:17;;;;;;;4.70;4.10;;;19.80;99.90;;;;;;4978054;28;20466;-66
2021/08/22 12:25:44;;;;;;;4.10;3.67;;;19.90;99.90;;;;;;4978076;28;20451;-66
2021/08/22 12:28:28;;;;;;;4.07;3.77;;;19.80;99.90;;;;;;4977907;28;20461;-65
2021/08/22 12:31:07;;;;;;;3.50;3.30;;;19.80;99.90;;;;;;4977722;28;20484;-66
2021/08/22 12:33:36;;;;;;;4.43;4.00;;;19.70;99.90;;;;;;4977813;28;20423;-65
2021/08/22 12:36:14;;;;;;;4.07;3.77;;;19.50;99.90;;;;;;4978160;28;20462;-65
2021/08/22 12:38:47;;;;;;;4.20;3.80;;;19.40;99.90;;;;;;4979146;28;20442;-65
2021/08/22 12:41:38;;;;;;;4.80;4.40;;;19.30;99.90;;;;;;4978588;28;20475;-65
2021/08/22 12:44:06;;;;;;;6.23;3.87;;;19.20;99.90;;;;;;4978267;28;20903;-65
2021/08/22 12:46:34;;;;;;;4.63;4.20;;;19.20;99.90;;;;;;4978106;28;20458;-65
2021/08/22 12:49:02;;;;;;;4.27;3.90;;;19.20;99.90;;;;;;4977736;28;20462;-65
2021/08/22 12:51:29;;;;;;;3.90;3.60;;;19.20;99.90;;;;;;4976940;28;20994;-65
2021/08/22 12:53:58;;;;;;;4.47;4.07;;;19.30;99.90;;;;;;4976789;28;20454;-65
2021/08/22 12:56:25;;;;;;;3.80;3.50;;;19.40;99.90;;;;;;4977020;28;20454;-65
2021/08/22 12:58:54;;;;;;;4.20;3.90;;;19.40;99.90;;;;;;4977398;28;20466;-65
2021/08/22 13:01:20;;;;;;;3.77;3.57;;;19.40;99.90;;;;;;4975960;28;20483;-65
2021/08/22 13:03:47;;;;;;;4.53;4.13;;;19.50;99.90;;;;;;4976939;28;20481;-65
2021/08/22 13:06:14;;;;;;;4.37;4.07;;;19.40;99.90;;;;;;4976881;28;20494;-65
2021/08/22 13:08:41;;;;;;;3.73;3.53;;;19.40;99.90;;;;;;4976878;28;20462;-65
2021/08/22 13:11:09;;;;;;;4.53;4.13;;;19.40;99.90;;;;;;4977115;28;20483;-64
2021/08/22 13:13:36;;;;;;;4.60;4.27;;;19.50;99.90;;;;;;4977089;28;20459;-65
2021/08/22 13:16:04;;;;;;;4.17;3.77;;;19.50;99.90;;;;;;4978348;28;20483;-64
2021/08/22 13:18:33;;;;;;;4.37;3.97;;;19.50;99.90;;;;;;4979565;28;20455;-65
2021/08/22 13:21:02;;;;;;;3.50;3.20;;;19.60;99.90;;;;;;4978015;28;20987;-65
2021/08/22 13:23:29;;;;;;;4.20;3.83;;;19.60;99.90;;;;;;4976318;28;20462;-65
2021/08/22 13:25:56;;;;;;;4.60;3.70;;;19.70;99.90;;;;;;4976406;28;20946;-65
2021/08/22 13:28:25;;;;;;;4.67;3.73;;;19.60;99.90;;;;;;4976796;28;20465;-65
2021/08/22 13:30:52;;;;;;;4.00;3.77;;;19.70;99.90;;;;;;4975976;28;20508;-65
2021/08/22 13:33:19;;;;;;;4.57;4.20;;;19.60;99.90;;;;;;4976004;28;20459;-65
2021/08/22 13:35:46;;;;;;;4.17;3.77;;;19.50;99.90;;;;;;4976456;28;20458;-65
2021/08/22 13:38:12;;;;;;;4.07;3.23;;;19.50;99.90;;;;;;4976540;28;20461;-65
2021/08/22 13:40:39;;;;;;;3.60;3.40;;;19.40;99.90;;;;;;4976055;28;21009;-65
2021/08/22 13:43:06;;;;;;;3.60;3.37;;;19.40;99.90;;;;;;4976492;28;20506;-65
2021/08/22 13:45:34;;;;;;;3.80;3.50;;;19.40;99.90;;;;;;4976128;28;20966;-65
2021/08/22 13:48:00;;;;;;;4.80;4.40;;;19.40;99.90;;;;;;4976209;28;20455;-65
2021/08/22 13:50:27;;;;;;;4.10;3.80;;;19.50;99.90;;;;;;4976443;28;20455;-65
2021/08/22 13:52:55;;;;;;;5.17;3.73;;;19.50;99.90;;;;;;4976271;28;20451;-65
2021/08/22 13:55:22;;;;;;;3.40;3.20;;;19.50;99.90;;;;;;4982510;28;20462;-65
2021/08/22 13:57:49;;;;;;;3.30;3.00;;;19.50;99.90;;;;;;4989325;28;20454;-65
2021/08/22 14:00:16;;;;;;;4.67;4.37;;;19.40;99.90;;;;;;4977146;28;20506;-65
2021/08/22 14:02:44;;;;;;;4.10;3.80;;;19.30;99.90;;;;;;4976277;28;20444;-65
2021/08/22 14:05:11;;;;;;;4.50;4.20;;;19.20;99.90;;;;;;4976126;28;20478;-65
2021/08/22 14:07:38;;;;;;;4.13;3.90;;;19.30;99.90;;;;;;4976092;28;20459;-65
2021/08/22 14:10:06;;;;;;;4.40;4.00;;;19.30;99.90;;;;;;4975923;28;20459;-65
2021/08/22 14:12:33;;;;;;;3.90;3.70;;;19.30;99.90;;;;;;4975541;28;20486;-65
2021/08/22 14:14:59;;;;;;;3.50;3.30;;;19.40;99.90;;;;;;4976078;28;20466;-65
2021/08/22 14:17:26;;;;;;;4.30;4.00;;;19.50;99.90;;;;;;4977597;28;20510;-65
2021/08/22 14:19:54;;;;;;;4.00;3.67;;;19.60;99.90;;;;;;4983473;28;20466;-65
2021/08/22 14:22:21;;;;;;;3.80;3.60;;;19.60;99.90;;;;;;4979996;28;20470;-65
2021/08/22 14:24:47;;;;;;;4.97;3.60;;;19.60;99.90;;;;;;4976214;28;20458;-65
2021/08/22 14:27:14;;;;;;;3.80;3.50;;;19.70;99.90;;;;;;4976369;28;20870;-65
2021/08/22 14:29:41;;;;;;;10.70;9.80;;;19.70;99.90;;;;;;4975734;28;20455;-65
2021/08/22 14:32:11;;;;;;;14.30;13.00;;;19.70;99.90;;;;;;4975252;28;20982;-65
2021/08/22 14:34:38;;;;;;;8.90;8.10;;;19.70;99.90;;;;;;4975676;28;20558;-65
2021/08/22 14:37:07;;;;;;;9.77;9.00;;;19.70;99.90;;;;;;4975669;28;20454;-65
2021/08/22 14:39:35;;;;;;;7.10;6.60;;;19.70;99.90;;;;;;4975760;28;20649;-65
2021/08/22 14:42:03;;;;;;;5.37;4.97;;;19.70;99.90;;;;;;4975553;28;20525;-65
2021/08/22 14:44:30;;;;;;;4.60;4.30;;;19.70;99.90;;;;;;4975684;28;20859;-65
2021/08/22 14:46:57;;;;;;;5.37;4.90;;;19.80;99.90;;;;;;4975908;28;20459;-65
2021/08/22 14:49:24;;;;;;;4.73;4.43;;;19.90;99.90;;;;;;4975841;28;20462;-65
2021/08/22 14:51:51;;;;;;;4.67;4.37;;;19.90;99.90;;;;;;4975178;28;20487;-65
2021/08/22 14:54:19;;;;;;;5.80;5.30;;;19.90;99.90;;;;;;4975338;28;20461;-65
2021/08/22 14:56:46;;;;;;;4.57;4.17;;;19.90;99.90;;;;;;4975582;28;20826;-65
2021/08/22 14:59:12;;;;;;;4.93;4.60;;;19.90;99.90;;;;;;4975693;28;20462;-65
2021/08/22 15:01:39;;;;;;;4.87;4.47;;;19.90;99.90;;;;;;4975201;28;20986;-65
2021/08/22 15:04:06;;;;;;;5.63;5.13;;;20.00;99.90;;;;;;4975896;28;20458;-65
2021/08/22 15:06:33;;;;;;;4.77;4.37;;;20.00;99.90;;;;;;4975038;28;20458;-65
2021/08/22 15:08:59;;;;;;;7.10;6.10;;;20.10;99.90;;;;;;4975449;28;20454;-65
2021/08/22 15:11:27;;;;;;;5.97;5.57;;;20.20;99.90;;;;;;4975729;28;20483;-65
2021/08/22 15:13:54;;;;;;;5.43;4.90;;;20.20;99.90;;;;;;4974836;28;20463;-65
2021/08/22 15:16:21;;;;;;;4.97;4.67;;;20.20;99.90;;;;;;4974955;28;20457;-65
2021/08/22 15:18:47;;;;;;;5.40;5.00;;;20.20;99.90;;;;;;4975273;28;20490;-65
2021/08/22 15:21:14;;;;;;;4.50;4.10;;;20.30;99.90;;;;;;4976959;28;20533;-65
2021/08/22 15:23:41;;;;;;;4.33;4.03;;;20.10;99.90;;;;;;4981327;28;20454;-65
2021/08/22 15:26:07;;;;;;;4.43;4.10;;;20.10;99.90;;;;;;4983313;28;20451;-65
2021/08/22 15:28:35;;;;;;;4.27;3.87;;;20.10;99.90;;;;;;4978602;28;20855;-65
2021/08/22 15:31:04;;;;;;;5.33;4.93;;;20.10;99.90;;;;;;4978643;28;20478;-65
2021/08/22 15:33:31;;;;;;;5.40;4.87;;;20.10;99.90;;;;;;4978307;28;20462;-65
2021/08/22 15:35:58;;;;;;;5.40;5.00;;;20.10;99.90;;;;;;4978534;28;20455;-65
2021/08/22 15:38:25;;;;;;;5.23;4.83;;;20.00;99.90;;;;;;4978906;28;20459;-65
2021/08/22 15:40:51;;;;;;;4.70;4.30;;;19.90;99.90;;;;;;4978257;28;20474;-65
2021/08/22 15:43:20;;;;;;;4.23;3.83;;;19.80;99.90;;;;;;4978432;28;20466;-65
2021/08/22 15:45:48;;;;;;;4.47;4.03;;;19.60;99.90;;;;;;4978295;28;20454;-65
2021/08/22 15:48:15;;;;;;;4.30;4.00;;;19.20;99.90;;;;;;4978048;28;20451;-64
2021/08/22 15:50:43;;;;;;;3.37;3.07;;;19.00;99.90;;;;;;4977858;28;20978;-64
2021/08/22 15:53:10;;;;;;;4.77;3.57;;;18.70;99.90;;;;;;4977838;28;20482;-64
2021/08/22 15:55:36;;;;;;;5.93;3.00;;;18.50;99.90;;;;;;4978195;28;21049;-64
2021/08/22 15:58:03;;;;;;;3.23;3.03;;;18.30;99.90;;;;;;4978093;28;20455;-65
2021/08/22 16:00:32;;;;;;;3.90;3.60;;;18.20;99.90;;;;;;4977946;28;20466;-64
2021/08/22 16:03:02;;;;;;;3.40;3.13;;;18.20;99.90;;;;;;4978124;28;20435;-65
2021/08/22 16:05:29;;;;;;;3.20;2.90;;;18.10;99.90;;;;;;4977785;28;20493;-65
2021/08/22 16:07:56;;;;;;;3.03;2.80;;;18.00;99.90;;;;;;4977438;28;20798;-65
2021/08/22 16:10:23;;;;;;;3.43;3.13;;;18.00;99.90;;;;;;4977490;28;20461;-65
2021/08/22 16:12:50;;;;;;;4.93;3.10;;;18.00;99.90;;;;;;4977803;28;20474;-65
2021/08/22 16:15:17;;;;;;;5.10;3.40;;;17.90;99.90;;;;;;4978106;28;20531;-65
2021/08/22 16:17:44;;;;;;;4.50;3.40;;;17.90;99.90;;;;;;4977767;28;20823;-65
2021/08/22 16:20:12;;;;;;;3.90;3.50;;;18.00;99.90;;;;;;4978089;28;20473;-65
2021/08/22 16:22:39;;;;;;;3.17;2.87;;;18.00;99.90;;;;;;4977670;28;20462;-65
2021/08/22 16:25:07;;;;;;;4.27;3.47;;;18.10;99.90;;;;;;4978108;28;20454;-65
2021/08/22 16:27:34;;;;;;;4.77;3.10;;;18.20;99.90;;;;;;4977682;28;20454;-65
2021/08/22 16:30:01;;;;;;;3.07;2.87;;;18.10;99.90;;;;;;4977758;28;20830;-65
2021/08/22 16:32:28;;;;;;;4.20;3.80;;;18.20;99.90;;;;;;4977626;28;20486;-65
2021/08/22 16:34:54;;;;;;;3.53;3.00;;;18.20;99.90;;;;;;4977730;28;20463;-65
2021/08/22 16:37:22;;;;;;;3.50;3.30;;;18.20;99.90;;;;;;4977691;28;20463;-65
2021/08/22 16:39:49;;;;;;;3.17;2.87;;;18.10;99.90;;;;;;4977669;28;20458;-65
2021/08/22 16:42:16;;;;;;;3.20;3.00;;;18.10;99.90;;;;;;4977308;28;20471;-65
2021/08/22 16:44:43;;;;;;;3.33;3.07;;;18.00;99.90;;;;;;4979471;28;20458;-65
2021/08/22 16:47:11;;;;;;;2.80;2.60;;;18.10;99.90;;;;;;4989949;28;20554;-65
2021/08/22 16:49:38;;;;;;;2.83;2.63;;;18.00;99.90;;;;;;4980456;28;20450;-65
2021/08/22 16:52:05;;;;;;;3.33;2.70;;;18.00;99.90;;;;;;4977452;28;20486;-65
2021/08/22 16:54:33;;;;;;;2.70;2.47;;;18.00;99.90;;;;;;4976751;28;20830;-65
2021/08/22 16:57:00;;;;;;;4.13;2.50;;;18.10;99.90;;;;;;4977019;28;20818;-66
2021/08/22 16:59:26;;;;;;;2.67;2.50;;;18.20;99.90;;;;;;4976647;28;20509;-65
2021/08/22 17:01:54;;;;;;;3.37;2.80;;;18.30;99.90;;;;;;4976598;28;20478;-65
2021/08/22 17:04:22;;;;;;;2.90;2.70;;;18.30;99.90;;;;;;4976865;28;20458;-65